Time;durP1;ratioP1;P1;durP2;ratioP2;P2;SDS_P1;SDS_P2;PMS_P1;PMS_P2;Temp;Humidity;BMP_temperature;BMP_pressure;BME280_temperature;BME280_humidity;BME280_pressure;Samples;Min_cycle;Max_cycle;Signal;HPM_P1;HPM_P2
2022/10/08 00:00:49;;;;;;;10.35;6.15;;;;;;;12.00;65.24;100812.13;5072135;28;20055;-27
2022/10/08 00:03:17;;;;;;;10.52;6.30;;;;;;;12.03;64.83;100807.19;5090232;28;20415;-27
2022/10/08 00:05:42;;;;;;;11.33;6.40;;;;;;;11.94;64.36;100802.28;5090341;28;20063;-29
2022/10/08 00:08:09;;;;;;;9.07;5.82;;;;;;;11.91;64.56;100802.69;5090431;28;20309;-28
2022/10/08 00:10:35;;;;;;;11.48;6.30;;;;;;;11.94;65.41;100805.75;5090232;28;20031;-28
2022/10/08 00:13:02;;;;;;;11.23;5.93;;;;;;;11.76;65.53;100798.38;5091991;28;20032;-28
2022/10/08 00:15:29;;;;;;;10.57;5.45;;;;;;;11.50;66.91;100791.22;5094783;28;20111;-29
2022/10/08 00:17:54;;;;;;;8.30;5.22;;;;;;;11.46;66.64;100782.81;5095822;28;20129;-27
2022/10/08 00:20:20;;;;;;;12.13;5.57;;;;;;;11.34;67.39;100778.28;5092691;28;20833;-27
2022/10/08 00:22:47;;;;;;;8.30;5.30;;;;;;;11.40;67.44;100770.28;5071698;28;20558;-30
2022/10/08 00:25:12;;;;;;;9.48;5.53;;;;;;;11.38;68.05;100771.50;5088567;28;20032;-27
2022/10/08 00:27:38;;;;;;;9.38;5.38;;;;;;;11.26;68.11;100753.44;5089874;28;20020;-29
2022/10/08 00:30:04;;;;;;;10.38;5.68;;;;;;;11.17;68.75;100743.97;5089671;28;20423;-29
2022/10/08 00:32:30;;;;;;;7.85;5.22;;;;;;;11.52;67.22;100767.78;5071801;28;20020;-26
2022/10/08 00:34:56;;;;;;;9.38;5.45;;;;;;;11.47;67.60;100770.28;5090095;28;20389;-25
2022/10/08 00:37:22;;;;;;;10.20;5.78;;;;;;;11.69;65.94;100767.34;5089665;28;20059;-29
2022/10/08 00:39:47;;;;;;;11.68;6.03;;;;;;;11.59;66.35;100773.94;5071292;28;20470;-27
2022/10/08 00:42:13;;;;;;;11.43;5.60;;;;;;;11.64;65.66;100771.47;5088199;28;20088;-27
2022/10/08 00:44:53;;;;;;;12.73;5.95;;;;;;;11.62;66.29;100770.84;5089466;28;20040;-27
2022/10/08 00:47:31;;;;;;;11.02;5.95;;;;;;;11.68;65.38;100771.06;5089629;28;20511;-26
2022/10/08 00:50:00;;;;;;;10.63;5.63;;;;;;;11.62;66.03;100762.00;5089756;28;20028;-31
2022/10/08 00:52:33;;;;;;;9.23;6.20;;;;;;;11.52;65.89;100746.41;5070953;28;20078;-30
2022/10/08 00:55:02;;;;;;;10.23;6.00;;;;;;;11.56;66.02;100755.66;5089437;28;20560;-27
2022/10/08 00:57:28;;;;;;;12.00;6.53;;;;;;;11.42;66.56;100756.69;5089346;28;20024;-31
2022/10/08 00:59:55;;;;;;;8.90;5.53;;;;;;;11.38;67.20;100758.16;5089305;28;20028;-30
2022/10/08 01:02:20;;;;;;;9.13;6.05;;;;;;;11.23;67.96;100751.16;5089440;28;20051;-27
2022/10/08 01:04:47;;;;;;;10.95;5.40;;;;;;;11.21;67.96;100753.22;5089505;28;20848;-27
2022/10/08 01:07:25;;;;;;;9.90;5.65;;;;;;;11.03;68.54;100721.84;5089256;28;20109;-27
2022/10/08 01:10:04;;;;;;;11.30;6.22;;;;;;;11.20;68.20;100740.91;5089473;28;20024;-28
2022/10/08 01:12:51;;;;;;;12.50;6.30;;;;;;;10.88;68.91;100728.41;5089335;28;20032;-29
2022/10/08 01:15:26;;;;;;;10.63;6.00;;;;;;;10.94;68.78;100739.06;5089456;28;20116;-28
2022/10/08 01:17:55;;;;;;;10.65;6.03;;;;;;;10.69;70.16;100746.03;5088691;28;20032;-30
2022/10/08 01:20:30;;;;;;;9.98;6.25;;;;;;;10.61;70.09;100713.19;5089003;28;20116;-28
2022/10/08 01:23:14;;;;;;;10.23;5.72;;;;;;;10.78;69.74;100732.28;5089034;28;20032;-27
2022/10/08 01:25:48;;;;;;;10.48;5.80;;;;;;;10.69;70.03;100722.84;5088778;28;20032;-28
2022/10/08 01:28:22;;;;;;;9.80;6.07;;;;;;;10.78;69.34;100726.94;5088865;28;20036;-28
2022/10/08 01:30:56;;;;;;;9.93;6.15;;;;;;;10.95;68.50;100724.72;5089004;28;20024;-27
2022/10/08 01:33:32;;;;;;;9.27;5.90;;;;;;;10.66;68.48;100709.91;5053841;28;20036;-27
2022/10/08 01:36:00;;;;;;;9.35;5.82;;;;;;;10.83;68.78;100724.50;5088722;28;20046;-27
2022/10/08 01:38:32;;;;;;;10.07;6.65;;;;;;;10.86;67.93;100729.41;5088519;28;20108;-27
2022/10/08 01:41:01;;;;;;;10.98;6.18;;;;;;;10.85;68.38;100730.44;5088805;28;20102;-28
2022/10/08 01:43:32;;;;;;;11.43;6.28;;;;;;;10.69;68.79;100714.84;5088790;28;20488;-29
2022/10/08 01:46:15;;;;;;;13.45;6.40;;;;;;;10.75;68.39;100715.88;5088488;28;20024;-29
2022/10/08 01:48:43;;;;;;;11.27;6.22;;;;;;;10.58;68.66;100734.09;5088454;28;20063;-27
2022/10/08 01:51:19;;;;;;;9.73;6.03;;;;;;;10.28;70.47;100726.41;5088518;28;20036;-30
2022/10/08 01:53:49;;;;;;;10.73;6.20;;;;;;;10.06;71.52;100729.19;5088337;28;20063;-27
2022/10/08 01:56:19;;;;;;;10.35;6.03;;;;;;;10.16;69.80;100714.69;5088437;28;20024;-28
2022/10/08 01:58:57;;;;;;;10.45;5.63;;;;;;;10.17;70.46;100726.97;5088532;28;20489;-29
2022/10/08 02:01:44;;;;;;;12.37;7.03;;;;;;;10.10;70.21;100726.16;5088326;28;20020;-27
2022/10/08 02:06:56;;;;;;;13.82;6.72;;;;;;;10.09;70.09;100713.84;5088100;28;20035;-29
2022/10/08 02:09:26;;;;;;;9.43;5.65;;;;;;;10.00;71.18;100716.66;5087981;28;20043;-29
2022/10/08 02:11:53;;;;;;;11.13;6.57;;;;;;;9.96;70.61;100715.44;5091132;28;20043;-29
2022/10/08 02:14:24;;;;;;;9.90;5.78;;;;;;;9.90;70.97;100726.88;5089785;28;20110;-30
2022/10/08 02:17:12;;;;;;;12.20;6.07;;;;;;;10.10;70.55;100732.28;5108173;28;20027;-31
2022/10/08 02:19:58;;;;;;;;;;;;;;;9.91;71.66;100717.03;5067614;28;20132;-29
2022/10/08 02:22:31;;;;;;;9.45;5.30;;;;;;;10.29;70.53;100724.56;5089144;28;19919;-28
2022/10/08 02:25:04;;;;;;;10.27;4.75;;;;;;;9.93;71.99;100709.66;5108311;28;20457;-27
2022/10/08 02:27:41;;;;;;;9.93;5.25;;;;;;;9.93;72.35;100715.00;5108178;28;20020;-30
2022/10/08 02:30:10;;;;;;;10.02;5.45;;;;;;;10.14;71.22;100690.09;5108007;28;20032;-28
2022/10/08 02:33:09;;;;;;;13.88;5.45;;;;;;;10.31;70.54;100723.38;5108014;28;20178;-31
2022/10/08 02:35:57;;;;;;;9.23;4.93;;;;;;;10.14;71.50;100711.41;5106197;28;20031;-26
2022/10/08 02:38:26;;;;;;;;;;;;;;;9.99;72.02;100722.19;5108146;28;20510;-28
2022/10/08 02:40:56;;;;;;;9.82;4.80;;;;;;;9.83;72.25;100710.06;5108074;28;20658;-26
2022/10/08 02:43:26;;;;;;;8.32;4.93;;;;;;;9.91;71.89;100722.38;5107506;28;20073;-26
2022/10/08 02:46:14;;;;;;;8.52;5.05;;;;;;;9.95;71.81;100723.59;5107689;28;20031;-28
2022/10/08 02:48:51;;;;;;;9.13;5.30;;;;;;;9.95;71.54;100721.78;5106337;28;20031;-26
2022/10/08 02:51:18;;;;;;;10.13;4.67;;;;;;;9.85;72.45;100718.66;5107843;28;20494;-31
2022/10/08 02:53:44;;;;;;;9.55;5.10;;;;;;;9.68;72.74;100733.31;5107268;28;20038;-26
2022/10/08 02:56:25;;;;;;;10.70;5.20;;;;;;;9.96;71.71;100720.75;5106128;28;20031;-27
2022/10/08 02:58:51;;;;;;;8.05;4.70;;;;;;;10.12;70.71;100724.09;5105923;28;20035;-30
2022/10/08 03:01:34;;;;;;;8.40;4.68;;;;;;;10.23;69.81;100736.84;5089107;28;20114;-28
2022/10/08 03:04:09;;;;;;;11.50;5.32;;;;;;;10.29;70.44;100730.72;5105883;28;20043;-28
2022/10/08 03:06:35;;;;;;;7.75;4.72;;;;;;;10.34;69.47;100722.13;5107358;28;20032;-27
2022/10/08 03:09:03;;;;;;;8.98;4.85;;;;;;;10.13;69.79;100704.41;5107358;28;20034;-31
2022/10/08 03:11:30;;;;;;;9.57;4.90;;;;;;;10.23;69.61;100716.34;5107451;28;20058;-27
2022/10/08 03:13:58;;;;;;;11.20;6.13;;;;;;;10.17;69.77;100706.47;5107347;28;20102;-27
2022/10/08 03:16:35;;;;;;;9.52;4.47;;;;;;;10.50;68.67;100718.28;5089717;28;20241;-27
2022/10/08 03:19:03;;;;;;;7.97;4.57;;;;;;;9.94;70.39;100701.47;5107278;28;20039;-28
2022/10/08 03:21:29;;;;;;;9.95;5.55;;;;;;;9.35;70.57;100696.66;5107440;28;20419;-27
2022/10/08 03:23:54;;;;;;;10.43;5.85;;;;;;;9.47;70.76;100711.09;5107139;28;20092;-27
2022/10/08 03:26:20;;;;;;;9.88;5.38;;;;;;;9.54;70.53;100708.44;5107731;28;20408;-26
2022/10/08 03:28:45;;;;;;;8.68;5.18;;;;;;;9.55;71.12;100721.56;5107173;28;20081;-28
2022/10/08 03:31:10;;;;;;;10.82;5.45;;;;;;;9.78;70.23;100712.47;5110091;28;20502;-27
2022/10/08 03:33:36;;;;;;;9.48;5.13;;;;;;;9.87;69.85;100695.31;5110927;28;20035;-27
2022/10/08 03:36:02;;;;;;;8.88;5.50;;;;;;;10.06;68.72;100694.56;5111153;28;20040;-26
2022/10/08 03:38:28;;;;;;;10.18;5.45;;;;;;;9.74;70.63;100712.03;5092653;28;20048;-27
2022/10/08 03:40:55;;;;;;;10.63;4.95;;;;;;;9.79;71.30;100706.16;5092733;28;20039;-30
2022/10/08 03:43:21;;;;;;;8.18;5.20;;;;;;;9.51;72.63;100708.84;5111465;28;20034;-27
2022/10/08 03:45:53;;;;;;;11.80;5.32;;;;;;;9.70;71.03;100704.66;5092341;28;20427;-26
2022/10/08 03:48:20;;;;;;;9.23;5.88;;;;;;;9.77;71.11;100708.19;5092733;28;20433;-27
2022/10/08 03:51:04;;;;;;;10.02;5.63;;;;;;;9.60;71.82;100700.53;5092620;28;20047;-30
2022/10/08 03:53:35;;;;;;;10.27;5.65;;;;;;;9.28;71.61;100669.22;5111450;28;20391;-28
2022/10/08 03:56:06;;;;;;;11.60;5.32;;;;;;;8.92;73.72;100699.44;5092466;28;20084;-27
2022/10/08 03:58:31;;;;;;;9.90;5.30;;;;;;;9.31;72.01;100706.06;5111022;28;20031;-29
2022/10/08 04:01:06;;;;;;;9.23;5.03;;;;;;;9.07;73.47;100678.88;5092737;28;20037;-27
2022/10/08 04:03:32;;;;;;;10.80;5.13;;;;;;;8.97;73.28;100665.09;5092558;28;20034;-27
2022/10/08 04:05:58;;;;;;;7.18;4.90;;;;;;;9.44;72.13;100699.00;5110959;28;20035;-31
2022/10/08 04:08:24;;;;;;;10.82;5.53;;;;;;;9.37;71.54;100678.66;5110861;28;20521;-26
2022/10/08 04:10:49;;;;;;;11.85;5.53;;;;;;;9.44;72.26;100691.00;5110484;28;20031;-27
2022/10/08 04:13:16;;;;;;;9.48;5.18;;;;;;;9.28;72.44;100693.97;5111049;28;20027;-29
2022/10/08 04:15:42;;;;;;;9.65;5.28;;;;;;;9.34;72.35;100684.41;5110249;28;20030;-29
2022/10/08 04:18:11;;;;;;;9.60;5.50;;;;;;;9.29;72.13;100671.66;5110400;28;20044;-28
2022/10/08 04:20:38;;;;;;;11.70;5.30;;;;;;;9.06;72.53;100677.25;5109182;28;20031;-27
2022/10/08 04:23:03;;;;;;;11.02;6.00;;;;;;;9.05;73.31;100678.25;5110497;28;20034;-29
2022/10/08 04:25:28;;;;;;;10.55;5.57;;;;;;;9.28;72.98;100701.97;5110256;28;20024;-28
2022/10/08 04:27:54;;;;;;;12.90;5.43;;;;;;;9.29;72.80;100684.16;5110103;28;20414;-30
2022/10/08 04:30:19;;;;;;;12.25;5.65;;;;;;;9.60;71.77;100689.88;5110496;28;20070;-27
2022/10/08 04:32:45;;;;;;;10.05;5.95;;;;;;;9.49;71.08;100681.59;5110316;28;20118;-27
2022/10/08 04:35:10;;;;;;;11.88;5.60;;;;;;;9.27;73.44;100702.97;5110266;28;20500;-29
2022/10/08 04:37:35;;;;;;;13.60;5.78;;;;;;;9.22;72.92;100708.88;5109887;28;20138;-26
2022/10/08 04:40:01;;;;;;;10.23;5.40;;;;;;;9.19;73.52;100708.44;5110192;28;20093;-31
2022/10/08 04:42:26;;;;;;;11.68;6.13;;;;;;;9.48;71.42;100683.44;5110043;28;20043;-27
2022/10/08 04:44:52;;;;;;;12.93;5.65;;;;;;;9.40;71.56;100694.25;5110263;28;20134;-31
2022/10/08 04:47:17;;;;;;;13.30;5.85;;;;;;;9.43;71.61;100699.19;5091716;28;20461;-28
2022/10/08 04:49:43;;;;;;;10.23;6.60;;;;;;;9.09;73.48;100694.66;5109878;28;20028;-30
2022/10/08 04:52:08;;;;;;;10.65;5.68;;;;;;;9.35;73.21;100707.31;5110171;28;20035;-27
2022/10/08 04:54:34;;;;;;;13.07;5.95;;;;;;;9.71;72.08;100703.66;5109558;28;20087;-29
2022/10/08 04:57:00;;;;;;;9.57;6.05;;;;;;;9.27;72.76;100705.63;5091555;28;20028;-27
2022/10/08 04:59:25;;;;;;;12.35;6.18;;;;;;;9.33;73.02;100688.06;5109733;28;20031;-27
2022/10/08 05:01:55;;;;;;;12.00;5.57;;;;;;;9.65;72.38;100714.06;5109750;28;20368;-27
2022/10/08 05:04:21;;;;;;;12.90;6.22;;;;;;;9.81;71.84;100712.09;5109756;28;20028;-26
2022/10/08 05:06:46;;;;;;;14.57;6.50;;;;;;;9.95;70.66;100716.47;5109405;28;20027;-27
2022/10/08 05:09:12;;;;;;;15.57;6.07;;;;;;;9.98;70.94;100710.72;5091072;28;20036;-26
2022/10/08 05:11:37;;;;;;;10.82;6.53;;;;;;;9.81;70.68;100696.13;5109338;28;20028;-26
2022/10/08 05:14:03;;;;;;;11.95;7.07;;;;;;;9.70;72.05;100697.47;5109615;28;20499;-28
2022/10/08 05:16:28;;;;;;;11.80;6.70;;;;;;;10.16;71.24;100718.16;5109464;28;20024;-28
2022/10/08 05:18:55;;;;;;;11.82;6.72;;;;;;;10.21;70.87;100714.91;5109376;28;20024;-27
2022/10/08 05:21:24;;;;;;;13.65;7.35;;;;;;;10.27;70.95;100716.75;5109193;28;20038;-31
2022/10/08 05:24:07;;;;;;;12.57;7.38;;;;;;;10.49;70.76;100732.66;5109008;28;20054;-28
2022/10/08 05:26:39;;;;;;;11.90;7.65;;;;;;;10.31;70.95;100706.56;5109254;28;20027;-30
2022/10/08 05:29:05;;;;;;;11.38;7.60;;;;;;;10.54;70.87;100731.03;5109306;28;20038;-29
2022/10/08 05:31:31;;;;;;;10.55;7.07;;;;;;;10.60;69.98;100726.72;5109414;28;20039;-27
2022/10/08 05:33:58;;;;;;;13.88;8.13;;;;;;;10.33;71.28;100726.66;5090700;28;20733;-27
2022/10/08 05:36:26;;;;;;;11.27;7.05;;;;;;;10.49;70.93;100714.81;5107443;28;20126;-28
2022/10/08 05:38:52;;;;;;;10.23;6.70;;;;;;;10.92;70.08;100730.44;5109534;28;20024;-30
2022/10/08 05:41:21;;;;;;;12.18;6.97;;;;;;;10.96;70.09;100720.19;5109514;28;20036;-28
2022/10/08 05:43:47;;;;;;;11.02;6.20;;;;;;;10.99;69.21;100722.44;5108487;28;20032;-26
2022/10/08 05:46:14;;;;;;;10.32;6.13;;;;;;;11.12;69.06;100730.44;5108821;28;20035;-26
2022/10/08 05:48:40;;;;;;;13.32;6.07;;;;;;;11.21;68.42;100723.84;5090067;28;20106;-30
2022/10/08 05:51:14;;;;;;;9.98;5.90;;;;;;;11.25;68.10;100730.44;5108961;28;20031;-28
2022/10/08 05:53:42;;;;;;;12.23;6.22;;;;;;;11.25;68.22;100730.44;5089284;28;20023;-28
2022/10/08 05:56:10;;;;;;;10.43;6.18;;;;;;;11.21;68.78;100745.22;5108645;28;20058;-26
2022/10/08 05:58:38;;;;;;;11.15;5.35;;;;;;;11.32;68.65;100740.28;5108515;28;20084;-29
2022/10/08 06:01:07;;;;;;;9.90;5.43;;;;;;;11.19;69.38;100739.25;5108646;28;20035;-28
2022/10/08 06:03:33;;;;;;;11.50;5.80;;;;;;;11.46;68.41;100737.41;5108113;28;20028;-27
2022/10/08 06:06:06;;;;;;;7.65;4.88;;;;;;;11.36;68.69;100712.13;5108800;28;20032;-29
2022/10/08 06:08:33;;;;;;;7.47;4.90;;;;;;;11.63;67.80;100737.78;5108526;28;20062;-27
2022/10/08 06:10:59;;;;;;;10.13;5.40;;;;;;;11.81;67.11;100741.63;5090069;28;20489;-28
2022/10/08 06:13:25;;;;;;;9.73;5.03;;;;;;;12.11;67.19;100736.59;5108565;28;20028;-27
2022/10/08 06:16:10;;;;;;;10.45;5.40;;;;;;;12.38;65.55;100740.00;5108248;28;20039;-27
2022/10/08 06:18:38;;;;;;;8.90;4.57;;;;;;;12.27;65.73;100737.97;5090078;28;20122;-27
2022/10/08 06:21:13;;;;;;;10.07;5.20;;;;;;;12.42;65.41;100724.31;5108349;28;20557;-30
2022/10/08 06:23:43;;;;;;;10.25;4.50;;;;;;;12.62;64.00;100726.88;5108208;28;20023;-28
2022/10/08 06:26:09;;;;;;;7.95;4.68;;;;;;;12.77;64.18;100743.47;5108189;28;20032;-28
2022/10/08 06:28:37;;;;;;;8.00;4.63;;;;;;;12.91;63.09;100754.06;5108259;28;20581;-28
2022/10/08 06:31:03;;;;;;;7.57;5.00;;;;;;;12.89;64.06;100732.03;5089930;28;20046;-31
2022/10/08 06:33:29;;;;;;;7.90;4.63;;;;;;;13.08;62.97;100744.47;5108057;28;20249;-30
2022/10/08 06:36:14;;;;;;;7.00;4.32;;;;;;;13.48;62.34;100756.69;5107441;28;20042;-28
2022/10/08 06:38:40;;;;;;;9.20;4.38;;;;;;;13.51;62.00;100754.41;5107613;28;20056;-28
2022/10/08 06:41:07;;;;;;;10.60;4.55;;;;;;;13.77;61.62;100752.47;5107834;28;20051;-29
2022/10/08 06:43:32;;;;;;;7.20;4.38;;;;;;;13.84;61.56;100758.59;5107803;28;20023;-28
2022/10/08 06:46:03;;;;;;;8.77;4.57;;;;;;;14.03;61.66;100748.66;5107926;28;20043;-27
2022/10/08 06:48:29;;;;;;;7.65;4.75;;;;;;;14.41;60.23;100743.03;5089486;28;20530;-28
2022/10/08 06:51:13;;;;;;;6.80;4.35;;;;;;;14.65;59.84;100733.22;5107222;28;20023;-27
2022/10/08 06:53:40;;;;;;;7.68;4.47;;;;;;;14.79;59.17;100749.94;5107610;28;20107;-28
2022/10/08 06:56:13;;;;;;;8.32;5.25;;;;;;;15.15;58.27;100748.13;5089017;28;20035;-30
2022/10/08 06:58:39;;;;;;;8.93;4.40;;;;;;;15.29;58.18;100743.34;5088955;28;20450;-27
2022/10/08 07:01:25;;;;;;;7.47;4.63;;;;;;;15.21;58.13;100725.69;5107413;28;20028;-27
2022/10/08 07:03:56;;;;;;;7.10;4.53;;;;;;;15.63;57.85;100732.78;5107009;28;20031;-27
2022/10/08 07:06:23;;;;;;;9.50;4.43;;;;;;;15.80;56.42;100727.56;5107431;28;20076;-28
2022/10/08 07:08:59;;;;;;;6.85;4.50;;;;;;;16.03;57.15;100732.88;5107200;28;20067;-29
2022/10/08 07:11:26;;;;;;;7.13;4.53;;;;;;;16.14;55.84;100719.59;5107133;28;20024;-31
2022/10/08 07:13:54;;;;;;;9.15;4.60;;;;;;;16.47;55.02;100737.75;5107110;28;20465;-27
2022/10/08 07:16:22;;;;;;;10.55;4.47;;;;;;;16.63;54.49;100730.75;5105623;28;20027;-27
2022/10/08 07:18:49;;;;;;;6.80;4.10;;;;;;;16.85;54.36;100728.19;5107401;28;20027;-28
2022/10/08 07:21:17;;;;;;;11.20;4.32;;;;;;;17.08;53.04;100732.63;5106978;28;20474;-29
2022/10/08 07:23:42;;;;;;;6.83;3.77;;;;;;;17.20;54.25;100736.03;5106766;28;20028;-31
2022/10/08 07:26:14;;;;;;;8.90;4.00;;;;;;;17.38;52.80;100728.72;5106590;28;20034;-28
2022/10/08 07:28:42;;;;;;;12.45;4.50;;;;;;;17.23;52.67;100719.34;5106885;28;20028;-30
2022/10/08 07:31:16;;;;;;;5.25;3.22;;;;;;;17.48;51.69;100726.97;5105820;28;20549;-30
2022/10/08 07:33:42;;;;;;;6.18;3.50;;;;;;;17.54;52.38;100729.75;5107134;28;20069;-28
2022/10/08 07:36:13;;;;;;;7.53;3.75;;;;;;;17.85;50.86;100731.81;5107039;28;20136;-28
2022/10/08 07:38:40;;;;;;;8.32;4.00;;;;;;;17.88;50.39;100722.41;5088677;28;20111;-30
2022/10/08 07:41:06;;;;;;;8.50;3.70;;;;;;;18.19;51.14;100725.47;5106030;28;20028;-29
2022/10/08 07:43:33;;;;;;;7.47;3.37;;;;;;;18.49;49.65;100716.88;5106678;28;20065;-27
2022/10/08 07:45:58;;;;;;;7.75;3.83;;;;;;;18.55;48.79;100717.72;5107225;28;20599;-29
2022/10/08 07:48:24;;;;;;;5.97;3.50;;;;;;;18.72;48.14;100709.50;5107015;28;20111;-28
2022/10/08 07:50:49;;;;;;;6.65;3.80;;;;;;;18.55;47.90;100720.41;5106963;28;20066;-30
2022/10/08 07:53:15;;;;;;;7.03;3.00;;;;;;;18.65;48.41;100715.09;5106849;28;20448;-29
2022/10/08 07:55:41;;;;;;;5.97;3.20;;;;;;;18.87;46.57;100699.66;5106546;28;20056;-28
2022/10/08 07:58:06;;;;;;;7.10;3.13;;;;;;;18.95;45.55;100711.06;5106794;28;20062;-30
2022/10/08 08:00:32;;;;;;;5.57;3.17;;;;;;;19.31;46.25;100719.41;5088515;28;20478;-29
2022/10/08 08:02:57;;;;;;;5.45;2.60;;;;;;;19.58;45.35;100717.41;5106780;28;20032;-29
2022/10/08 08:05:23;;;;;;;4.97;2.88;;;;;;;19.43;43.85;100693.81;5106866;28;20031;-30
2022/10/08 08:07:48;;;;;;;5.10;2.78;;;;;;;19.49;43.99;100700.03;5107016;28;20027;-27
2022/10/08 08:10:13;;;;;;;6.25;3.00;;;;;;;19.62;44.92;100704.19;5106584;28;20122;-31
2022/10/08 08:12:39;;;;;;;5.78;2.70;;;;;;;19.70;43.62;100717.22;5088386;28;20115;-32
2022/10/08 08:15:05;;;;;;;7.13;3.10;;;;;;;19.89;43.10;100709.47;5106669;28;20118;-29
2022/10/08 08:17:30;;;;;;;7.43;3.17;;;;;;;19.91;43.14;100688.34;5091872;28;20510;-33
2022/10/08 08:19:55;;;;;;;5.65;2.92;;;;;;;20.22;42.04;100707.38;5092152;28;20521;-28
2022/10/08 08:22:21;;;;;;;5.28;2.92;;;;;;;20.26;42.60;100708.47;5092227;28;20031;-28
2022/10/08 08:24:46;;;;;;;6.38;3.30;;;;;;;20.37;42.94;100685.75;5110455;28;20097;-28
2022/10/08 08:27:12;;;;;;;7.32;2.90;;;;;;;20.33;42.70;100702.78;5110660;28;20030;-29
2022/10/08 08:29:37;;;;;;;6.07;3.45;;;;;;;20.18;43.14;100681.91;5092071;28;20028;-32
2022/10/08 08:32:03;;;;;;;8.35;3.45;;;;;;;20.04;43.43;100685.16;5092220;28;20093;-28
2022/10/08 08:34:29;;;;;;;5.35;2.92;;;;;;;20.34;42.07;100683.56;5110538;28;20649;-31
2022/10/08 08:36:55;;;;;;;4.40;2.70;;;;;;;20.85;41.28;100682.81;5110026;28;20055;-28
2022/10/08 08:39:25;;;;;;;6.57;3.03;;;;;;;20.82;42.19;100684.19;5110232;28;20034;-28
2022/10/08 08:42:03;;;;;;;5.75;3.00;;;;;;;21.08;41.06;100684.13;5091313;28;20032;-28
2022/10/08 08:44:43;;;;;;;9.82;3.00;;;;;;;21.22;40.26;100682.47;5110391;28;20045;-28
2022/10/08 08:47:24;;;;;;;5.25;3.28;;;;;;;21.34;40.76;100687.59;5110018;28;20410;-28
2022/10/08 08:49:53;;;;;;;6.10;3.10;;;;;;;21.14;40.38;100674.91;5109699;28;20570;-29
2022/10/08 08:52:25;;;;;;;5.07;3.10;;;;;;;21.14;40.49;100671.38;5110105;28;20027;-29
2022/10/08 08:54:52;;;;;;;4.88;3.20;;;;;;;21.13;40.51;100673.28;5110121;28;20027;-29
2022/10/08 08:57:26;;;;;;;7.80;3.03;;;;;;;21.27;40.35;100668.91;5109968;28;20028;-29
2022/10/08 08:59:55;;;;;;;6.75;3.38;;;;;;;21.81;39.80;100677.41;5109714;28;20502;-28
2022/10/08 09:02:33;;;;;;;6.22;3.20;;;;;;;21.92;39.50;100672.75;5109684;28;20104;-28
2022/10/08 09:05:02;;;;;;;6.25;3.13;;;;;;;21.96;38.76;100673.81;5110041;28;20031;-29
2022/10/08 09:07:38;;;;;;;5.68;3.20;;;;;;;21.86;39.37;100637.50;5091286;28;20449;-28
2022/10/08 09:10:08;;;;;;;6.55;3.28;;;;;;;22.07;39.01;100661.81;5109811;28;20031;-28
2022/10/08 09:12:44;;;;;;;6.45;3.28;;;;;;;22.21;37.74;100659.25;5109637;28;20028;-28
2022/10/08 09:15:26;;;;;;;6.70;3.13;;;;;;;22.17;39.80;100641.88;5109667;28;20036;-30
2022/10/08 09:17:52;;;;;;;6.47;3.28;;;;;;;22.29;38.50;100623.34;5109404;28;20577;-28
2022/10/08 09:20:22;;;;;;;5.60;3.50;;;;;;;22.65;38.95;100636.66;5109462;28;20027;-28
2022/10/08 09:22:50;;;;;;;8.20;3.28;;;;;;;22.53;37.95;100638.94;5109431;28;20445;-28
2022/10/08 09:25:18;;;;;;;;;;;;;;;22.74;37.73;100629.53;5108446;28;20429;-30
2022/10/08 09:27:45;;;;;;;6.22;2.55;;;;;;;22.49;37.42;100627.00;5107727;28;19915;-28
2022/10/08 09:30:23;;;;;;;11.88;3.35;;;;;;;22.61;38.38;100630.16;5109432;28;20031;-31
2022/10/08 09:32:49;;;;;;;8.95;3.33;;;;;;;22.80;36.82;100622.09;5108754;28;20113;-28
2022/10/08 09:35:14;;;;;;;6.97;2.88;;;;;;;23.23;37.53;100614.03;5108940;28;20038;-30
2022/10/08 09:37:45;;;;;;;5.75;3.20;;;;;;;23.46;36.55;100596.09;5108798;28;20047;-31
2022/10/08 09:40:10;;;;;;;6.72;3.45;;;;;;;23.71;37.46;100624.09;5108894;28;20024;-29
2022/10/08 09:42:36;;;;;;;7.70;2.92;;;;;;;23.36;35.34;100609.84;5109037;28;20031;-29
2022/10/08 09:45:04;;;;;;;5.55;3.13;;;;;;;23.45;36.31;100621.69;5108969;28;20020;-30
2022/10/08 09:47:32;;;;;;;;;;;;;;;23.49;36.20;100614.56;5109250;28;20042;-30
2022/10/08 09:50:17;;;;;;;6.93;2.83;;;;;;;23.62;36.17;100602.97;5108736;28;19915;-29
2022/10/08 09:52:45;;;;;;;7.40;3.53;;;;;;;23.95;35.00;100603.06;5108818;28;20570;-32
2022/10/08 09:55:21;;;;;;;5.90;2.97;;;;;;;23.70;36.08;100601.50;5108910;28;20742;-30
2022/10/08 09:57:53;;;;;;;9.98;3.30;;;;;;;23.66;35.98;100587.66;5108730;28;20032;-30
2022/10/08 10:00:22;;;;;;;5.20;2.75;;;;;;;23.54;36.57;100595.44;5089870;28;20061;-29
2022/10/08 10:02:52;;;;;;;4.55;3.08;;;;;;;23.70;35.44;100590.59;5108379;28;20034;-29
2022/10/08 10:05:27;;;;;;;4.35;3.05;;;;;;;24.02;36.13;100589.84;5108407;28;20399;-29
2022/10/08 10:07:53;;;;;;;6.38;3.10;;;;;;;24.12;35.79;100571.75;5089698;28;20024;-28
2022/10/08 10:10:27;;;;;;;9.77;3.15;;;;;;;24.17;36.20;100560.75;5108443;28;20411;-30
2022/10/08 10:13:18;;;;;;;6.47;2.70;;;;;;;24.21;34.81;100567.22;5106744;28;20051;-29
2022/10/08 10:16:13;;;;;;;6.47;3.20;;;;;;;24.80;35.61;100571.09;5108214;28;20491;-29
2022/10/08 10:18:47;;;;;;;5.32;2.75;;;;;;;24.78;35.10;100576.03;5104007;28;20039;-28
2022/10/08 10:21:19;;;;;;;5.85;3.15;;;;;;;24.52;32.91;100544.91;5108233;28;20064;-31
2022/10/08 10:24:20;;;;;;;6.75;2.90;;;;;;;24.86;34.03;100563.63;5107824;28;20464;-28
2022/10/08 10:26:49;;;;;;;5.13;2.72;;;;;;;25.18;32.68;100557.25;5108280;28;20132;-29
2022/10/08 10:29:21;;;;;;;5.80;2.97;;;;;;;25.46;32.50;100549.06;5107787;28;20039;-28
2022/10/08 10:32:02;;;;;;;6.55;3.15;;;;;;;25.96;31.41;100549.00;5107819;28;20031;-29
2022/10/08 10:34:31;;;;;;;7.05;2.90;;;;;;;26.05;31.05;100540.88;5107742;28;20039;-33
2022/10/08 10:37:05;;;;;;;11.20;3.17;;;;;;;25.74;31.58;100536.09;5089264;28;20055;-29
2022/10/08 10:40:02;;;;;;;6.18;2.85;;;;;;;25.90;32.22;100536.59;5107000;28;20023;-31
2022/10/08 10:42:49;;;;;;;6.15;3.47;;;;;;;25.96;30.93;100527.16;5098959;28;20034;-29
2022/10/08 10:45:15;;;;;;;5.68;3.10;;;;;;;25.94;31.61;100523.91;5091349;28;20047;-29
2022/10/08 10:47:40;;;;;;;5.88;3.40;;;;;;;26.13;32.01;100499.13;5103947;28;20115;-29
2022/10/08 10:50:12;;;;;;;13.43;9.52;;;;;;;26.41;30.91;100518.88;5107172;28;20028;-29
2022/10/08 10:52:49;;;;;;;12.27;10.85;;;;;;;26.30;30.89;100525.75;5106637;28;20031;-33
2022/10/08 10:55:17;;;;;;;6.35;4.47;;;;;;;26.25;30.79;100507.56;5107502;28;20032;-29
2022/10/08 10:57:53;;;;;;;5.10;2.88;;;;;;;26.38;30.48;100505.84;5107207;28;20061;-29
2022/10/08 11:00:21;;;;;;;4.47;2.95;;;;;;;26.53;30.17;100506.56;5107434;28;20072;-29
2022/10/08 11:02:52;;;;;;;7.60;3.80;;;;;;;26.54;30.77;100486.28;5107400;28;20023;-29
2022/10/08 11:05:22;;;;;;;7.00;3.05;;;;;;;26.34;31.02;100498.59;5107129;28;20028;-29
2022/10/08 11:08:20;;;;;;;5.85;2.90;;;;;;;26.29;32.45;100488.59;5088532;28;20074;-28
2022/10/08 11:10:58;;;;;;;6.95;2.80;;;;;;;26.42;31.27;100487.69;5107155;28;20528;-30
2022/10/08 11:13:41;;;;;;;3.88;2.70;;;;;;;26.13;31.43;100481.91;5107269;28;20062;-29
2022/10/08 11:16:10;;;;;;;7.10;2.80;;;;;;;26.70;31.01;100479.28;5107529;28;20042;-30
2022/10/08 11:18:50;;;;;;;4.47;2.80;;;;;;;27.23;29.69;100475.53;5107048;28;20107;-31
2022/10/08 11:21:15;;;;;;;5.57;2.83;;;;;;;27.64;30.62;100479.75;5088869;28;20452;-28
2022/10/08 11:23:47;;;;;;;4.00;2.50;;;;;;;27.35;28.24;100457.69;5106812;28;20035;-30
2022/10/08 11:26:24;;;;;;;5.10;3.15;;;;;;;26.63;29.83;100468.00;5107374;28;20027;-30
2022/10/08 11:29:10;;;;;;;5.15;2.92;;;;;;;26.34;30.68;100461.13;5107305;28;20028;-31
2022/10/08 11:31:48;;;;;;;8.77;3.53;;;;;;;26.33;30.12;100458.69;5107092;28;20027;-32
2022/10/08 11:34:22;;;;;;;6.47;2.70;;;;;;;26.69;30.40;100460.47;5106853;28;20710;-30
2022/10/08 11:37:25;;;;;;;6.68;2.72;;;;;;;26.66;30.82;100442.75;5106399;28;20449;-29
2022/10/08 11:40:13;;;;;;;9.40;4.30;;;;;;;26.69;30.04;100433.13;5106731;28;20165;-31
2022/10/08 11:42:54;;;;;;;7.28;3.38;;;;;;;27.31;28.89;100432.06;5106841;28;20031;-29